sensor_id;sensor_type;location;lat;lon;timestamp;P1;durP1;ratioP1;P2;durP2;ratioP2
7879;SDS011;3985;49.366;2.738;2024-02-14T00:00:38;7.75;;;7.00;;
7879;SDS011;3985;49.366;2.738;2024-02-14T00:03:06;9.25;;;9.25;;
7879;SDS011;3985;49.366;2.738;2024-02-14T00:05:33;5.50;;;5.00;;
7879;SDS011;3985;49.366;2.738;2024-02-14T00:08:01;8.00;;;7.00;;
7879;SDS011;3985;49.366;2.738;2024-02-14T00:10:32;8.50;;;7.50;;
7879;SDS011;3985;49.366;2.738;2024-02-14T00:13:01;7.00;;;6.00;;
7879;SDS011;3985;49.366;2.738;2024-02-14T00:15:29;7.50;;;6.25;;
7879;SDS011;3985;49.366;2.738;2024-02-14T00:17:59;9.50;;;7.50;;
7879;SDS011;3985;49.366;2.738;2024-02-14T00:20:27;6.00;;;5.00;;
7879;SDS011;3985;49.366;2.738;2024-02-14T00:22:54;6.25;;;6.25;;
7879;SDS011;3985;49.366;2.738;2024-02-14T00:25:23;7.00;;;6.50;;
7879;SDS011;3985;49.366;2.738;2024-02-14T00:27:51;4.25;;;4.25;;
7879;SDS011;3985;49.366;2.738;2024-02-14T00:30:20;7.00;;;7.00;;
7879;SDS011;3985;49.366;2.738;2024-02-14T00:32:48;6.75;;;6.75;;
7879;SDS011;3985;49.366;2.738;2024-02-14T00:35:16;6.50;;;6.50;;
7879;SDS011;3985;49.366;2.738;2024-02-14T00:37:43;7.00;;;7.00;;
7879;SDS011;3985;49.366;2.738;2024-02-14T00:40:11;9.00;;;9.00;;
7879;SDS011;3985;49.366;2.738;2024-02-14T00:42:38;10.25;;;10.25;;
7879;SDS011;3985;49.366;2.738;2024-02-14T00:45:06;9.00;;;7.00;;
7879;SDS011;3985;49.366;2.738;2024-02-14T00:47:36;10.00;;;8.50;;
7879;SDS011;3985;49.366;2.738;2024-02-14T00:50:03;12.50;;;10.50;;
7879;SDS011;3985;49.366;2.738;2024-02-14T00:52:32;11.75;;;9.50;;
7879;SDS011;3985;49.366;2.738;2024-02-14T00:54:59;12.25;;;12.25;;
7879;SDS011;3985;49.366;2.738;2024-02-14T00:57:28;8.00;;;8.00;;
7879;SDS011;3985;49.366;2.738;2024-02-14T00:59:55;14.00;;;11.00;;
7879;SDS011;3985;49.366;2.738;2024-02-14T01:02:23;12.25;;;12.25;;
7879;SDS011;3985;49.366;2.738;2024-02-14T01:04:52;9.50;;;9.50;;
7879;SDS011;3985;49.366;2.738;2024-02-14T01:07:20;14.00;;;12.25;;
7879;SDS011;3985;49.366;2.738;2024-02-14T01:09:47;12.00;;;11.25;;
7879;SDS011;3985;49.366;2.738;2024-02-14T01:12:15;13.00;;;11.50;;
7879;SDS011;3985;49.366;2.738;2024-02-14T01:14:42;11.00;;;11.00;;
7879;SDS011;3985;49.366;2.738;2024-02-14T01:17:09;12.00;;;11.00;;
7879;SDS011;3985;49.366;2.738;2024-02-14T01:19:37;10.00;;;10.00;;
7879;SDS011;3985;49.366;2.738;2024-02-14T01:22:05;7.25;;;7.25;;
7879;SDS011;3985;49.366;2.738;2024-02-14T01:24:33;13.00;;;11.25;;
7879;SDS011;3985;49.366;2.738;2024-02-14T01:27:01;12.25;;;11.50;;
7879;SDS011;3985;49.366;2.738;2024-02-14T01:29:29;11.00;;;11.00;;
7879;SDS011;3985;49.366;2.738;2024-02-14T01:31:56;15.25;;;13.25;;
7879;SDS011;3985;49.366;2.738;2024-02-14T01:34:23;9.25;;;8.50;;
7879;SDS011;3985;49.366;2.738;2024-02-14T01:36:50;11.50;;;11.50;;
7879;SDS011;3985;49.366;2.738;2024-02-14T01:39:20;10.25;;;9.50;;
7879;SDS011;3985;49.366;2.738;2024-02-14T01:41:47;11.50;;;11.50;;
7879;SDS011;3985;49.366;2.738;2024-02-14T01:44:14;9.00;;;9.00;;
7879;SDS011;3985;49.366;2.738;2024-02-14T01:46:42;12.00;;;12.00;;
7879;SDS011;3985;49.366;2.738;2024-02-14T01:49:09;12.25;;;11.50;;
7879;SDS011;3985;49.366;2.738;2024-02-14T01:51:38;10.00;;;9.25;;
7879;SDS011;3985;49.366;2.738;2024-02-14T01:54:07;8.25;;;8.25;;
7879;SDS011;3985;49.366;2.738;2024-02-14T01:56:36;11.00;;;11.00;;
7879;SDS011;3985;49.366;2.738;2024-02-14T01:59:03;12.00;;;12.00;;
7879;SDS011;3985;49.366;2.738;2024-02-14T02:01:31;11.50;;;10.50;;
7879;SDS011;3985;49.366;2.738;2024-02-14T02:03:58;13.50;;;12.25;;
7879;SDS011;3985;49.366;2.738;2024-02-14T02:06:26;10.50;;;10.50;;
7879;SDS011;3985;49.366;2.738;2024-02-14T02:08:53;12.50;;;12.50;;
7879;SDS011;3985;49.366;2.738;2024-02-14T02:11:21;14.75;;;12.50;;
7879;SDS011;3985;49.366;2.738;2024-02-14T02:13:51;11.75;;;11.25;;
7879;SDS011;3985;49.366;2.738;2024-02-14T02:16:19;9.00;;;9.00;;
7879;SDS011;3985;49.366;2.738;2024-02-14T02:18:46;15.00;;;13.25;;
7879;SDS011;3985;49.366;2.738;2024-02-14T02:21:14;12.75;;;11.25;;
7879;SDS011;3985;49.366;2.738;2024-02-14T02:23:46;12.00;;;12.00;;
7879;SDS011;3985;49.366;2.738;2024-02-14T02:26:13;13.50;;;10.50;;
7879;SDS011;3985;49.366;2.738;2024-02-14T02:28:40;11.75;;;11.25;;
7879;SDS011;3985;49.366;2.738;2024-02-14T02:31:08;12.00;;;12.00;;
7879;SDS011;3985;49.366;2.738;2024-02-14T02:33:35;8.67;;;7.00;;
7879;SDS011;3985;49.366;2.738;2024-02-14T02:36:03;10.00;;;10.00;;
7879;SDS011;3985;49.366;2.738;2024-02-14T02:38:31;11.67;;;11.67;;
7879;SDS011;3985;49.366;2.738;2024-02-14T02:41:00;13.25;;;12.25;;
7879;SDS011;3985;49.366;2.738;2024-02-14T02:43:27;9.67;;;9.67;;
7879;SDS011;3985;49.366;2.738;2024-02-14T02:45:55;12.75;;;8.50;;
7879;SDS011;3985;49.366;2.738;2024-02-14T02:48:23;17.00;;;15.00;;
7879;SDS011;3985;49.366;2.738;2024-02-14T02:50:50;9.33;;;9.33;;
7879;SDS011;3985;49.366;2.738;2024-02-14T02:53:18;4.00;;;4.00;;
7879;SDS011;3985;49.366;2.738;2024-02-14T02:55:46;13.33;;;12.67;;
7879;SDS011;3985;49.366;2.738;2024-02-14T02:58:17;10.33;;;10.33;;
7879;SDS011;3985;49.366;2.738;2024-02-14T03:00:46;11.67;;;9.00;;
7879;SDS011;3985;49.366;2.738;2024-02-14T03:03:14;11.75;;;11.75;;
7879;SDS011;3985;49.366;2.738;2024-02-14T03:05:43;10.67;;;10.67;;
7879;SDS011;3985;49.366;2.738;2024-02-14T03:08:10;10.00;;;10.00;;
7879;SDS011;3985;49.366;2.738;2024-02-14T03:10:40;13.75;;;12.00;;
7879;SDS011;3985;49.366;2.738;2024-02-14T03:13:10;12.67;;;12.33;;
7879;SDS011;3985;49.366;2.738;2024-02-14T03:15:39;17.75;;;12.50;;
7879;SDS011;3985;49.366;2.738;2024-02-14T03:18:08;15.00;;;13.00;;
7879;SDS011;3985;49.366;2.738;2024-02-14T03:20:36;11.67;;;11.67;;
7879;SDS011;3985;49.366;2.738;2024-02-14T03:23:03;12.75;;;11.75;;
7879;SDS011;3985;49.366;2.738;2024-02-14T03:25:31;14.00;;;10.50;;
7879;SDS011;3985;49.366;2.738;2024-02-14T03:28:02;12.75;;;10.50;;
7879;SDS011;3985;49.366;2.738;2024-02-14T03:30:32;9.00;;;9.00;;
7879;SDS011;3985;49.366;2.738;2024-02-14T03:33:01;18.50;;;14.00;;
7879;SDS011;3985;49.366;2.738;2024-02-14T03:35:28;11.00;;;11.00;;
7879;SDS011;3985;49.366;2.738;2024-02-14T03:37:56;11.00;;;9.00;;
7879;SDS011;3985;49.366;2.738;2024-02-14T03:40:23;15.75;;;11.50;;
7879;SDS011;3985;49.366;2.738;2024-02-14T03:42:50;9.00;;;9.00;;
7879;SDS011;3985;49.366;2.738;2024-02-14T03:45:20;10.25;;;10.25;;
7879;SDS011;3985;49.366;2.738;2024-02-14T03:47:47;12.00;;;11.33;;
7879;SDS011;3985;49.366;2.738;2024-02-14T03:50:16;10.67;;;10.67;;
7879;SDS011;3985;49.366;2.738;2024-02-14T03:52:43;13.67;;;11.00;;
7879;SDS011;3985;49.366;2.738;2024-02-14T03:55:13;13.00;;;13.00;;
7879;SDS011;3985;49.366;2.738;2024-02-14T03:57:42;9.00;;;9.00;;
7879;SDS011;3985;49.366;2.738;2024-02-14T04:00:11;14.33;;;14.33;;
7879;SDS011;3985;49.366;2.738;2024-02-14T04:02:38;11.00;;;10.33;;
7879;SDS011;3985;49.366;2.738;2024-02-14T04:05:06;9.33;;;7.67;;
7879;SDS011;3985;49.366;2.738;2024-02-14T04:07:35;6.33;;;6.00;;
7879;SDS011;3985;49.366;2.738;2024-02-14T04:10:03;14.67;;;14.67;;
7879;SDS011;3985;49.366;2.738;2024-02-14T04:12:31;12.33;;;12.00;;
7879;SDS011;3985;49.366;2.738;2024-02-14T04:14:58;12.00;;;10.00;;
7879;SDS011;3985;49.366;2.738;2024-02-14T04:17:26;15.67;;;13.33;;
7879;SDS011;3985;49.366;2.738;2024-02-14T04:19:53;13.00;;;13.00;;
7879;SDS011;3985;49.366;2.738;2024-02-14T04:22:20;12.33;;;12.33;;
7879;SDS011;3985;49.366;2.738;2024-02-14T04:24:49;10.67;;;10.67;;
7879;SDS011;3985;49.366;2.738;2024-02-14T04:27:17;14.00;;;14.00;;
7879;SDS011;3985;49.366;2.738;2024-02-14T04:29:45;13.00;;;13.00;;
7879;SDS011;3985;49.366;2.738;2024-02-14T04:32:13;13.67;;;13.67;;
7879;SDS011;3985;49.366;2.738;2024-02-14T04:34:40;15.00;;;15.00;;
7879;SDS011;3985;49.366;2.738;2024-02-14T04:37:08;11.33;;;11.33;;
7879;SDS011;3985;49.366;2.738;2024-02-14T04:39:38;13.00;;;13.00;;
7879;SDS011;3985;49.366;2.738;2024-02-14T04:42:07;14.00;;;14.00;;
7879;SDS011;3985;49.366;2.738;2024-02-14T04:44:34;12.33;;;12.33;;
7879;SDS011;3985;49.366;2.738;2024-02-14T04:47:02;11.00;;;11.00;;
7879;SDS011;3985;49.366;2.738;2024-02-14T04:49:30;13.25;;;13.25;;
7879;SDS011;3985;49.366;2.738;2024-02-14T04:51:57;12.67;;;12.67;;
7879;SDS011;3985;49.366;2.738;2024-02-14T04:54:25;8.25;;;8.25;;
7879;SDS011;3985;49.366;2.738;2024-02-14T04:56:53;13.67;;;13.67;;
7879;SDS011;3985;49.366;2.738;2024-02-14T04:59:21;14.50;;;13.75;;
7879;SDS011;3985;49.366;2.738;2024-02-14T05:01:51;12.00;;;12.00;;
7879;SDS011;3985;49.366;2.738;2024-02-14T05:04:19;14.75;;;13.25;;
7879;SDS011;3985;49.366;2.738;2024-02-14T05:06:46;14.00;;;12.75;;
7879;SDS011;3985;49.366;2.738;2024-02-14T05:09:14;9.50;;;9.50;;
7879;SDS011;3985;49.366;2.738;2024-02-14T05:11:41;14.00;;;13.00;;
7879;SDS011;3985;49.366;2.738;2024-02-14T05:14:08;14.67;;;13.00;;
7879;SDS011;3985;49.366;2.738;2024-02-14T05:16:37;13.33;;;13.33;;
7879;SDS011;3985;49.366;2.738;2024-02-14T05:19:04;14.00;;;12.33;;
7879;SDS011;3985;49.366;2.738;2024-02-14T05:21:31;14.50;;;14.50;;
7879;SDS011;3985;49.366;2.738;2024-02-14T05:23:59;16.33;;;14.00;;
7879;SDS011;3985;49.366;2.738;2024-02-14T05:26:27;16.00;;;15.75;;
7879;SDS011;3985;49.366;2.738;2024-02-14T05:28:54;13.00;;;13.00;;
7879;SDS011;3985;49.366;2.738;2024-02-14T05:31:22;10.67;;;10.67;;
7879;SDS011;3985;49.366;2.738;2024-02-14T05:33:56;11.00;;;9.00;;
7879;SDS011;3985;49.366;2.738;2024-02-14T05:36:24;9.00;;;9.00;;
7879;SDS011;3985;49.366;2.738;2024-02-14T05:38:51;9.00;;;9.00;;
7879;SDS011;3985;49.366;2.738;2024-02-14T05:41:18;15.00;;;13.67;;
7879;SDS011;3985;49.366;2.738;2024-02-14T05:43:46;13.00;;;13.00;;
7879;SDS011;3985;49.366;2.738;2024-02-14T05:46:13;10.67;;;10.67;;
7879;SDS011;3985;49.366;2.738;2024-02-14T05:48:41;15.00;;;15.00;;
7879;SDS011;3985;49.366;2.738;2024-02-14T05:51:10;13.33;;;13.00;;
7879;SDS011;3985;49.366;2.738;2024-02-14T05:53:37;13.50;;;13.50;;
7879;SDS011;3985;49.366;2.738;2024-02-14T05:56:04;18.67;;;15.67;;
7879;SDS011;3985;49.366;2.738;2024-02-14T05:58:32;18.00;;;16.67;;
7879;SDS011;3985;49.366;2.738;2024-02-14T06:00:59;18.67;;;18.67;;
7879;SDS011;3985;49.366;2.738;2024-02-14T06:03:27;16.75;;;16.75;;
7879;SDS011;3985;49.366;2.738;2024-02-14T06:05:54;18.67;;;17.33;;
7879;SDS011;3985;49.366;2.738;2024-02-14T06:08:24;18.50;;;17.00;;
7879;SDS011;3985;49.366;2.738;2024-02-14T06:10:53;22.00;;;17.00;;
7879;SDS011;3985;49.366;2.738;2024-02-14T06:13:21;18.00;;;18.00;;
7879;SDS011;3985;49.366;2.738;2024-02-14T06:15:51;17.25;;;17.25;;
7879;SDS011;3985;49.366;2.738;2024-02-14T06:18:18;20.75;;;19.50;;
7879;SDS011;3985;49.366;2.738;2024-02-14T06:20:45;18.25;;;18.25;;
7879;SDS011;3985;49.366;2.738;2024-02-14T06:23:13;16.00;;;13.50;;
7879;SDS011;3985;49.366;2.738;2024-02-14T06:25:44;13.00;;;11.67;;
7879;SDS011;3985;49.366;2.738;2024-02-14T06:28:12;17.00;;;17.00;;
7879;SDS011;3985;49.366;2.738;2024-02-14T06:30:39;20.33;;;18.67;;
7879;SDS011;3985;49.366;2.738;2024-02-14T06:33:11;20.00;;;19.00;;
7879;SDS011;3985;49.366;2.738;2024-02-14T06:35:38;21.33;;;21.33;;
7879;SDS011;3985;49.366;2.738;2024-02-14T06:38:05;21.00;;;18.50;;
7879;SDS011;3985;49.366;2.738;2024-02-14T06:40:32;20.50;;;19.25;;
7879;SDS011;3985;49.366;2.738;2024-02-14T06:43:01;24.25;;;24.25;;
7879;SDS011;3985;49.366;2.738;2024-02-14T06:45:28;32.75;;;28.50;;
7879;SDS011;3985;49.366;2.738;2024-02-14T06:47:57;20.33;;;20.33;;
7879;SDS011;3985;49.366;2.738;2024-02-14T06:50:25;19.75;;;18.75;;
7879;SDS011;3985;49.366;2.738;2024-02-14T06:52:53;27.00;;;25.25;;
7879;SDS011;3985;49.366;2.738;2024-02-14T06:55:24;29.75;;;28.00;;
7879;SDS011;3985;49.366;2.738;2024-02-14T06:57:51;26.00;;;26.00;;
7879;SDS011;3985;49.366;2.738;2024-02-14T07:00:20;23.75;;;23.75;;
7879;SDS011;3985;49.366;2.738;2024-02-14T07:02:48;26.50;;;24.25;;
7879;SDS011;3985;49.366;2.738;2024-02-14T07:05:15;22.25;;;22.25;;
7879;SDS011;3985;49.366;2.738;2024-02-14T07:07:42;30.50;;;25.50;;
7879;SDS011;3985;49.366;2.738;2024-02-14T07:10:10;26.25;;;24.50;;
7879;SDS011;3985;49.366;2.738;2024-02-14T07:12:37;24.25;;;23.00;;
7879;SDS011;3985;49.366;2.738;2024-02-14T07:15:06;27.67;;;27.67;;
7879;SDS011;3985;49.366;2.738;2024-02-14T07:17:35;25.75;;;22.00;;
7879;SDS011;3985;49.366;2.738;2024-02-14T07:20:04;24.75;;;21.50;;
7879;SDS011;3985;49.366;2.738;2024-02-14T07:22:33;21.75;;;20.50;;
7879;SDS011;3985;49.366;2.738;2024-02-14T07:25:01;35.25;;;26.25;;
7879;SDS011;3985;49.366;2.738;2024-02-14T07:27:32;23.00;;;17.25;;
7879;SDS011;3985;49.366;2.738;2024-02-14T07:29:59;31.50;;;28.25;;
7879;SDS011;3985;49.366;2.738;2024-02-14T07:32:26;26.00;;;25.75;;
7879;SDS011;3985;49.366;2.738;2024-02-14T07:34:55;31.50;;;26.50;;
7879;SDS011;3985;49.366;2.738;2024-02-14T07:37:22;28.25;;;22.25;;
7879;SDS011;3985;49.366;2.738;2024-02-14T07:39:50;34.25;;;27.25;;
7879;SDS011;3985;49.366;2.738;2024-02-14T07:42:17;29.00;;;26.75;;
7879;SDS011;3985;49.366;2.738;2024-02-14T07:44:44;26.75;;;26.75;;
7879;SDS011;3985;49.366;2.738;2024-02-14T07:47:11;24.00;;;24.00;;
7879;SDS011;3985;49.366;2.738;2024-02-14T07:49:39;24.00;;;24.00;;
7879;SDS011;3985;49.366;2.738;2024-02-14T07:52:08;26.00;;;24.25;;
7879;SDS011;3985;49.366;2.738;2024-02-14T07:54:35;24.50;;;24.50;;
7879;SDS011;3985;49.366;2.738;2024-02-14T07:57:02;25.00;;;24.25;;
7879;SDS011;3985;49.366;2.738;2024-02-14T07:59:29;20.00;;;20.00;;
7879;SDS011;3985;49.366;2.738;2024-02-14T08:01:57;25.75;;;22.75;;
7879;SDS011;3985;49.366;2.738;2024-02-14T08:04:24;25.00;;;19.75;;
7879;SDS011;3985;49.366;2.738;2024-02-14T08:06:51;26.50;;;21.75;;
7879;SDS011;3985;49.366;2.738;2024-02-14T08:09:20;24.50;;;21.75;;
7879;SDS011;3985;49.366;2.738;2024-02-14T08:11:47;28.25;;;26.50;;
7879;SDS011;3985;49.366;2.738;2024-02-14T08:14:17;25.33;;;25.33;;
7879;SDS011;3985;49.366;2.738;2024-02-14T08:16:44;19.67;;;19.67;;
7879;SDS011;3985;49.366;2.738;2024-02-14T08:19:12;20.00;;;20.00;;
7879;SDS011;3985;49.366;2.738;2024-02-14T08:21:40;22.33;;;19.00;;
7879;SDS011;3985;49.366;2.738;2024-02-14T08:24:08;21.00;;;17.67;;
7879;SDS011;3985;49.366;2.738;2024-02-14T08:26:36;17.33;;;15.67;;
7879;SDS011;3985;49.366;2.738;2024-02-14T08:29:03;20.67;;;20.00;;
7879;SDS011;3985;49.366;2.738;2024-02-14T08:31:31;20.33;;;17.67;;
7879;SDS011;3985;49.366;2.738;2024-02-14T08:33:58;20.67;;;20.67;;
7879;SDS011;3985;49.366;2.738;2024-02-14T08:36:26;24.00;;;19.67;;
7879;SDS011;3985;49.366;2.738;2024-02-14T08:38:53;20.33;;;17.67;;
7879;SDS011;3985;49.366;2.738;2024-02-14T08:41:20;17.00;;;17.00;;
7879;SDS011;3985;49.366;2.738;2024-02-14T08:43:49;19.00;;;18.67;;
7879;SDS011;3985;49.366;2.738;2024-02-14T08:46:17;17.00;;;17.00;;
7879;SDS011;3985;49.366;2.738;2024-02-14T08:48:44;15.00;;;15.00;;
7879;SDS011;3985;49.366;2.738;2024-02-14T08:51:11;15.67;;;15.67;;
7879;SDS011;3985;49.366;2.738;2024-02-14T08:53:39;19.33;;;17.67;;
7879;SDS011;3985;49.366;2.738;2024-02-14T08:56:07;19.00;;;17.67;;
7879;SDS011;3985;49.366;2.738;2024-02-14T08:58:36;21.67;;;21.67;;
7879;SDS011;3985;49.366;2.738;2024-02-14T09:01:04;19.67;;;18.67;;
7879;SDS011;3985;49.366;2.738;2024-02-14T09:03:32;22.33;;;21.67;;
7879;SDS011;3985;49.366;2.738;2024-02-14T09:05:59;17.67;;;17.00;;
7879;SDS011;3985;49.366;2.738;2024-02-14T09:08:28;20.00;;;16.67;;
7879;SDS011;3985;49.366;2.738;2024-02-14T09:10:56;18.33;;;18.33;;
7879;SDS011;3985;49.366;2.738;2024-02-14T09:13:24;18.25;;;17.25;;
7879;SDS011;3985;49.366;2.738;2024-02-14T09:15:52;16.00;;;16.00;;
7879;SDS011;3985;49.366;2.738;2024-02-14T09:18:21;17.67;;;17.67;;
7879;SDS011;3985;49.366;2.738;2024-02-14T09:20:50;19.33;;;18.33;;
7879;SDS011;3985;49.366;2.738;2024-02-14T09:23:18;18.67;;;17.33;;
7879;SDS011;3985;49.366;2.738;2024-02-14T09:25:47;19.67;;;17.00;;
7879;SDS011;3985;49.366;2.738;2024-02-14T09:28:16;18.50;;;17.25;;
7879;SDS011;3985;49.366;2.738;2024-02-14T09:30:43;18.50;;;17.00;;
7879;SDS011;3985;49.366;2.738;2024-02-14T09:33:11;17.67;;;16.00;;
7879;SDS011;3985;49.366;2.738;2024-02-14T09:35:39;19.00;;;18.00;;
7879;SDS011;3985;49.366;2.738;2024-02-14T09:38:09;16.67;;;14.67;;
7879;SDS011;3985;49.366;2.738;2024-02-14T09:40:37;18.33;;;18.00;;
7879;SDS011;3985;49.366;2.738;2024-02-14T09:43:05;11.00;;;9.33;;
7879;SDS011;3985;49.366;2.738;2024-02-14T09:45:36;17.33;;;15.67;;
7879;SDS011;3985;49.366;2.738;2024-02-14T09:48:03;18.33;;;18.33;;
7879;SDS011;3985;49.366;2.738;2024-02-14T09:50:31;16.00;;;16.00;;
7879;SDS011;3985;49.366;2.738;2024-02-14T09:53:01;18.00;;;15.33;;
7879;SDS011;3985;49.366;2.738;2024-02-14T09:55:29;14.75;;;14.25;;
7879;SDS011;3985;49.366;2.738;2024-02-14T09:57:58;17.25;;;15.75;;
7879;SDS011;3985;49.366;2.738;2024-02-14T10:00:29;15.75;;;12.25;;
7879;SDS011;3985;49.366;2.738;2024-02-14T10:02:58;12.50;;;12.50;;
7879;SDS011;3985;49.366;2.738;2024-02-14T10:05:25;16.00;;;13.75;;
7879;SDS011;3985;49.366;2.738;2024-02-14T10:07:54;12.25;;;12.00;;
7879;SDS011;3985;49.366;2.738;2024-02-14T10:10:25;17.00;;;12.25;;
7879;SDS011;3985;49.366;2.738;2024-02-14T10:12:54;10.00;;;10.00;;
7879;SDS011;3985;49.366;2.738;2024-02-14T10:15:21;12.00;;;12.00;;
7879;SDS011;3985;49.366;2.738;2024-02-14T10:17:49;14.25;;;14.25;;
7879;SDS011;3985;49.366;2.738;2024-02-14T10:20:16;13.00;;;10.00;;
7879;SDS011;3985;49.366;2.738;2024-02-14T10:22:44;9.50;;;9.25;;
7879;SDS011;3985;49.366;2.738;2024-02-14T10:25:12;8.75;;;7.75;;
7879;SDS011;3985;49.366;2.738;2024-02-14T10:27:41;6.75;;;6.75;;
7879;SDS011;3985;49.366;2.738;2024-02-14T10:30:09;10.75;;;9.25;;
7879;SDS011;3985;49.366;2.738;2024-02-14T10:32:36;7.25;;;7.25;;
7879;SDS011;3985;49.366;2.738;2024-02-14T10:35:05;6.25;;;4.75;;
7879;SDS011;3985;49.366;2.738;2024-02-14T10:37:34;7.25;;;7.25;;
7879;SDS011;3985;49.366;2.738;2024-02-14T10:40:04;7.25;;;7.25;;
7879;SDS011;3985;49.366;2.738;2024-02-14T10:42:34;4.00;;;4.00;;
7879;SDS011;3985;49.366;2.738;2024-02-14T10:45:03;7.75;;;6.00;;
7879;SDS011;3985;49.366;2.738;2024-02-14T10:47:32;8.00;;;8.00;;
7879;SDS011;3985;49.366;2.738;2024-02-14T10:50:02;9.25;;;8.50;;
7879;SDS011;3985;49.366;2.738;2024-02-14T10:52:31;10.00;;;10.00;;
7879;SDS011;3985;49.366;2.738;2024-02-14T10:54:59;7.00;;;5.75;;
7879;SDS011;3985;49.366;2.738;2024-02-14T10:57:29;9.50;;;8.25;;
7879;SDS011;3985;49.366;2.738;2024-02-14T10:59:58;6.00;;;6.00;;
7879;SDS011;3985;49.366;2.738;2024-02-14T11:02:31;8.00;;;6.50;;
7879;SDS011;3985;49.366;2.738;2024-02-14T11:04:59;10.00;;;8.00;;
7879;SDS011;3985;49.366;2.738;2024-02-14T11:07:27;7.75;;;7.75;;
7879;SDS011;3985;49.366;2.738;2024-02-14T11:10:01;9.00;;;7.50;;
7879;SDS011;3985;49.366;2.738;2024-02-14T11:12:32;7.00;;;7.00;;
7879;SDS011;3985;49.366;2.738;2024-02-14T11:15:01;6.50;;;6.00;;
7879;SDS011;3985;49.366;2.738;2024-02-14T11:17:37;7.50;;;7.00;;
7879;SDS011;3985;49.366;2.738;2024-02-14T11:20:12;3.25;;;3.25;;
7879;SDS011;3985;49.366;2.738;2024-02-14T11:22:49;6.00;;;5.25;;
7879;SDS011;3985;49.366;2.738;2024-02-14T11:25:20;4.50;;;4.50;;
7879;SDS011;3985;49.366;2.738;2024-02-14T11:27:50;3.75;;;3.75;;
7879;SDS011;3985;49.366;2.738;2024-02-14T11:30:30;4.75;;;4.75;;
7879;SDS011;3985;49.366;2.738;2024-02-14T11:33:13;3.00;;;3.00;;
7879;SDS011;3985;49.366;2.738;2024-02-14T11:35:43;2.25;;;2.25;;
7879;SDS011;3985;49.366;2.738;2024-02-14T11:38:11;3.75;;;2.50;;
7879;SDS011;3985;49.366;2.738;2024-02-14T11:40:39;2.75;;;2.75;;
7879;SDS011;3985;49.366;2.738;2024-02-14T11:43:10;4.00;;;3.00;;
7879;SDS011;3985;49.366;2.738;2024-02-14T11:45:42;2.00;;;2.00;;
7879;SDS011;3985;49.366;2.738;2024-02-14T11:48:11;1.75;;;1.75;;
7879;SDS011;3985;49.366;2.738;2024-02-14T11:50:40;2.75;;;2.00;;
7879;SDS011;3985;49.366;2.738;2024-02-14T11:53:10;2.00;;;2.00;;
7879;SDS011;3985;49.366;2.738;2024-02-14T11:55:38;3.00;;;2.00;;
7879;SDS011;3985;49.366;2.738;2024-02-14T11:58:06;2.00;;;2.00;;
7879;SDS011;3985;49.366;2.738;2024-02-14T12:00:36;4.00;;;2.25;;
7879;SDS011;3985;49.366;2.738;2024-02-14T12:03:06;3.00;;;1.50;;
7879;SDS011;3985;49.366;2.738;2024-02-14T12:05:35;4.00;;;1.00;;
7879;SDS011;3985;49.366;2.738;2024-02-14T12:08:06;2.00;;;2.00;;
7879;SDS011;3985;49.366;2.738;2024-02-14T12:10:34;1.00;;;1.00;;
7879;SDS011;3985;49.366;2.738;2024-02-14T12:13:04;1.00;;;1.00;;
7879;SDS011;3985;49.366;2.738;2024-02-14T12:15:37;1.00;;;1.00;;
7879;SDS011;3985;49.366;2.738;2024-02-14T12:18:07;1.75;;;1.00;;
7879;SDS011;3985;49.366;2.738;2024-02-14T12:20:37;1.00;;;1.00;;
7879;SDS011;3985;49.366;2.738;2024-02-14T12:23:04;1.50;;;1.00;;
7879;SDS011;3985;49.366;2.738;2024-02-14T12:25:32;1.00;;;1.00;;
7879;SDS011;3985;49.366;2.738;2024-02-14T12:28:00;1.00;;;1.00;;
7879;SDS011;3985;49.366;2.738;2024-02-14T12:30:33;0.00;;;0.00;;
7879;SDS011;3985;49.366;2.738;2024-02-14T12:33:10;1.00;;;1.00;;
7879;SDS011;3985;49.366;2.738;2024-02-14T12:35:41;2.25;;;2.00;;
7879;SDS011;3985;49.366;2.738;2024-02-14T12:38:09;3.00;;;1.75;;
7879;SDS011;3985;49.366;2.738;2024-02-14T12:40:37;2.50;;;1.00;;
7879;SDS011;3985;49.366;2.738;2024-02-14T12:43:06;1.25;;;1.25;;
7879;SDS011;3985;49.366;2.738;2024-02-14T12:45:36;1.00;;;1.00;;
7879;SDS011;3985;49.366;2.738;2024-02-14T12:48:03;1.50;;;1.50;;
7879;SDS011;3985;49.366;2.738;2024-02-14T12:50:33;0.75;;;0.75;;
7879;SDS011;3985;49.366;2.738;2024-02-14T12:53:02;1.00;;;1.00;;
7879;SDS011;3985;49.366;2.738;2024-02-14T12:55:32;1.00;;;1.00;;
7879;SDS011;3985;49.366;2.738;2024-02-14T12:57:59;1.50;;;1.00;;
7879;SDS011;3985;49.366;2.738;2024-02-14T13:00:27;2.50;;;1.00;;
7879;SDS011;3985;49.366;2.738;2024-02-14T13:02:56;1.00;;;1.00;;
7879;SDS011;3985;49.366;2.738;2024-02-14T13:05:26;1.00;;;1.00;;
7879;SDS011;3985;49.366;2.738;2024-02-14T13:07:56;1.00;;;1.00;;
7879;SDS011;3985;49.366;2.738;2024-02-14T13:10:29;3.75;;;1.25;;
7879;SDS011;3985;49.366;2.738;2024-02-14T13:12:56;3.50;;;2.00;;
7879;SDS011;3985;49.366;2.738;2024-02-14T13:15:24;1.00;;;1.00;;
7879;SDS011;3985;49.366;2.738;2024-02-14T13:17:51;3.00;;;2.00;;
7879;SDS011;3985;49.366;2.738;2024-02-14T13:20:18;1.25;;;1.25;;
7879;SDS011;3985;49.366;2.738;2024-02-14T13:22:45;1.25;;;1.25;;
7879;SDS011;3985;49.366;2.738;2024-02-14T13:25:13;0.25;;;0.25;;
7879;SDS011;3985;49.366;2.738;2024-02-14T13:27:42;1.00;;;1.00;;
7879;SDS011;3985;49.366;2.738;2024-02-14T13:30:13;1.00;;;1.00;;
7879;SDS011;3985;49.366;2.738;2024-02-14T13:32:40;2.00;;;2.00;;
7879;SDS011;3985;49.366;2.738;2024-02-14T13:35:07;0.50;;;0.50;;
7879;SDS011;3985;49.366;2.738;2024-02-14T13:37:36;1.50;;;1.00;;
7879;SDS011;3985;49.366;2.738;2024-02-14T13:40:04;1.00;;;1.00;;
7879;SDS011;3985;49.366;2.738;2024-02-14T13:42:35;1.75;;;1.75;;
7879;SDS011;3985;49.366;2.738;2024-02-14T13:45:05;2.00;;;2.00;;
7879;SDS011;3985;49.366;2.738;2024-02-14T13:47:36;2.25;;;2.25;;
7879;SDS011;3985;49.366;2.738;2024-02-14T13:50:05;5.25;;;5.00;;
7879;SDS011;3985;49.366;2.738;2024-02-14T13:52:33;5.00;;;5.00;;
7879;SDS011;3985;49.366;2.738;2024-02-14T13:55:00;4.25;;;4.25;;
7879;SDS011;3985;49.366;2.738;2024-02-14T13:57:30;7.25;;;4.25;;
7879;SDS011;3985;49.366;2.738;2024-02-14T13:59:57;5.00;;;5.00;;
7879;SDS011;3985;49.366;2.738;2024-02-14T14:02:25;5.25;;;5.25;;
7879;SDS011;3985;49.366;2.738;2024-02-14T14:04:53;6.00;;;4.25;;
7879;SDS011;3985;49.366;2.738;2024-02-14T14:07:20;4.00;;;4.00;;
7879;SDS011;3985;49.366;2.738;2024-02-14T14:09:48;5.00;;;4.00;;
7879;SDS011;3985;49.366;2.738;2024-02-14T14:12:16;4.75;;;4.75;;
7879;SDS011;3985;49.366;2.738;2024-02-14T14:14:43;5.75;;;4.00;;
7879;SDS011;3985;49.366;2.738;2024-02-14T14:17:10;5.00;;;5.00;;
7879;SDS011;3985;49.366;2.738;2024-02-14T14:19:39;4.75;;;4.75;;
7879;SDS011;3985;49.366;2.738;2024-02-14T14:22:06;3.00;;;3.00;;
7879;SDS011;3985;49.366;2.738;2024-02-14T14:24:34;5.00;;;5.00;;
7879;SDS011;3985;49.366;2.738;2024-02-14T14:27:01;4.75;;;3.75;;
7879;SDS011;3985;49.366;2.738;2024-02-14T14:29:29;4.75;;;4.00;;
7879;SDS011;3985;49.366;2.738;2024-02-14T14:31:56;3.00;;;3.00;;
7879;SDS011;3985;49.366;2.738;2024-02-14T14:34:25;5.50;;;4.00;;
7879;SDS011;3985;49.366;2.738;2024-02-14T14:36:56;3.00;;;3.00;;
7879;SDS011;3985;49.366;2.738;2024-02-14T14:39:23;3.75;;;3.00;;
7879;SDS011;3985;49.366;2.738;2024-02-14T14:41:50;3.00;;;3.00;;
7879;SDS011;3985;49.366;2.738;2024-02-14T14:44:19;3.00;;;3.00;;
7879;SDS011;3985;49.366;2.738;2024-02-14T14:46:46;4.00;;;4.00;;
7879;SDS011;3985;49.366;2.738;2024-02-14T14:49:15;4.50;;;4.50;;
7879;SDS011;3985;49.366;2.738;2024-02-14T14:51:43;4.25;;;4.00;;
7879;SDS011;3985;49.366;2.738;2024-02-14T14:54:14;3.00;;;3.00;;
7879;SDS011;3985;49.366;2.738;2024-02-14T14:56:41;3.25;;;2.00;;
7879;SDS011;3985;49.366;2.738;2024-02-14T14:59:11;2.75;;;2.75;;
7879;SDS011;3985;49.366;2.738;2024-02-14T15:01:39;3.50;;;3.00;;
7879;SDS011;3985;49.366;2.738;2024-02-14T15:04:11;4.00;;;4.00;;
7879;SDS011;3985;49.366;2.738;2024-02-14T15:06:38;4.50;;;4.50;;